Aviation Digital Data Service (ADDS)

Output produced by METARs form (1221 UTC 28 July 2014)
found at http://www.aviationweather.gov/adds/metars/
 
KLGA 281141Z 2812/2912 19008KT P6SM BKN025 
     TEMPO 2812/2813 BKN015 
     FM281400 23010KT P6SM SCT025 SCT120 
     FM281600 24014G20KT P6SM SCT050 
     FM281900 25019G26KT P6SM SCT050 
     FM290000 29018G26KT P6SM FEW050 
     FM290700 30014G20KT P6SM SKC 
     FM291000 30010KT P6SM SKC